Estación meteorológica de Calldetenes (Osona, Plana de Vic)

Consulta los datos en tiempo real de la estación meteorológica de Calldetenes





Hora UTC 19:25
Temperatura 12.4 ºC
Suelo 15 cm 12.2 ºC
Humedad 100.0 %
Presión 1012.0 hPa
Pluja 14.5 mm
Velocidad viento 3.0 km/h
Dirección viento SSW
Radiación solar 0.1 W/m²

Webcam

Datos diarios 2026-05-09



Hora UTC (invierno +1h; verano +2h)
Temperatura (ºC) Humedad (%) Presión (hPa) Velocidad viento (km/h) Precipitación (mm) Radiación solar (W/m²)
Hora UTC Aire Suelo 15 cm Humedad Presión Vel. Dir. Vel. Max Dir. Intent. máx 5 min. Rad. Sol.
00:05 8.3 8.3 97.3 1016.0 2.6 ESE 2.6 ESE 0.0 0.1
00:10 8.4 8.3 97.7 1016.0 2.6 SSE 4.2 ESE 0.0 0.1
00:15 8.6 8.4 98.5 1016.0 2.3 SSE 4.2 S 0.0 0.1
00:20 8.8 8.6 98.5 1016.0 1.7 ESE 3.2 ESE 0.0 0.2
00:25 8.9 8.7 98.5 1016.1 1.6 SE 3.2 SSE 0.0 0.1
00:30 9.1 8.9 98.5 1016.1 1.5 SSE 2.8 SSE 0.0 0.1
00:35 9.1 9.1 97.9 1016.1 0.3 SSW 2.1 SSW 0.0 0.1
00:40 9.1 9.2 98.1 1016.1 1.3 S 3.2 ESE 0.0 0.1
00:45 9.3 9.2 98.2 1015.9 2.7 SE 4.6 ESE 0.0 0.1
00:50 9.4 9.3 98.1 1015.9 1.1 SSE 2.8 S 0.0 0.1
00:55 9.4 9.4 98.0 1016.0 1.2 SE 2.5 SE 0.0 0.1
01:00 9.6 9.5 98.2 1016.0 0.1 SE 1.4 SE 0.0 0.1
01:05 9.7 9.7 98.1 1015.9 1.7 S 3.2 SSE 0.0 0.1
01:10 9.8 9.9 97.7 1015.9 1.4 S 2.8 S 0.0 0.1
01:15 9.9 10.1 97.3 1015.9 0.2 SSW 1.4 SSW 0.0 0.1
01:20 9.9 10.1 96.7 1015.9 0.2 NNE 1.1 NNE 0.0 0.1
01:25 9.9 10.1 96.5 1015.9 0.1 ENE 1.1 NE 0.0 0.1
01:30 9.9 10.0 96.6 1015.9 0.0 ESE 1.1 ESE 0.0 0.2
01:35 10.1 10.0 97.0 1015.7 0.9 ESE 3.2 SE 0.0 0.1
01:40 10.1 10.1 96.6 1015.7 0.5 ESE 2.1 ESE 0.0 0.1
01:45 10.2 10.1 96.8 1015.6 1.3 ESE 2.5 ESE 0.0 0.1
01:50 10.2 10.1 96.6 1015.6 0.6 SE 3.2 SE 0.0 0.1
01:55 10.2 10.2 96.6 1015.6 2.4 E 3.2 E 0.0 0.1
02:00 10.1 10.2 96.4 1015.6 0.8 ENE 2.8 ENE 0.0 0.1
02:05 10.1 10.1 96.5 1015.6 0.3 W 1.8 NW 0.0 0.1
02:10 10.0 10.0 96.3 1015.6 1.2 NW 2.5 NW 0.0 0.1
02:15 9.9 9.9 95.9 1015.5 2.7 SW 4.6 SSW 0.0 0.1
02:20 9.8 9.8 94.7 1015.5 3.9 SSW 6.0 SSW 0.0 0.1
02:25 9.5 9.7 94.0 1015.4 3.4 SSW 5.3 S 0.0 0.1
02:30 9.4 9.6 94.7 1015.4 3.3 S 5.3 S 0.0 0.1
02:35 9.4 9.5 94.4 1015.3 0.7 ESE 2.8 S 0.0 0.1
02:40 9.1 9.2 94.4 1015.3 1.5 N 2.5 N 0.0 0.2
02:45 9.0 8.9 95.0 1015.1 0.0 NNE 0.0 NW 0.0 0.1
02:50 9.0 8.8 95.1 1015.1 0.0 SW 1.1 SW 0.0 0.1
02:55 8.9 8.7 95.3 1015.0 0.6 SSW 2.1 SSW 0.0 0.1
03:00 9.0 8.6 96.3 1015.0 0.4 SSW 1.8 SSW 0.0 0.1
03:05 8.7 8.5 95.7 1015.0 3.8 SE 7.1 ESE 0.0 0.1
03:10 8.6 8.3 96.2 1015.0 3.8 SSE 6.4 ESE 0.0 0.1
03:15 8.4 8.0 96.6 1015.0 4.0 SSW 7.1 SSW 0.0 0.1
03:20 8.9 8.0 98.2 1015.0 4.9 S 7.4 SSW 0.0 0.1
03:25 9.0 8.2 97.5 1014.9 3.7 S 5.3 S 0.0 0.1
03:30 9.1 8.4 97.4 1014.9 3.8 S 6.0 SSE 0.0 0.1
03:35 9.1 8.6 96.8 1015.0 3.8 SSW 6.0 S 0.0 0.1
03:40 8.8 8.5 95.4 1015.0 2.0 SSE 3.9 SSW 0.0 0.1
03:45 8.5 8.3 95.7 1014.9 3.1 SE 4.2 ESE 0.0 0.1
03:50 8.2 8.1 95.7 1014.9 1.8 S 3.9 SE 0.0 0.1
03:55 7.9 7.8 95.8 1015.0 2.0 SSW 4.2 SSW 0.0 0.1
04:00 8.0 7.5 97.5 1015.0 0.3 SSW 2.1 SE 0.0 0.1
04:05 8.1 7.5 97.9 1014.8 3.2 ESE 5.3 ESE 0.0 0.2
04:10 8.0 7.6 97.6 1014.8 3.2 ESE 4.6 ESE 0.0 0.1
04:15 8.3 7.7 98.6 1014.7 6.0 ESE 7.1 ESE 0.0 0.2
04:20 8.3 7.8 97.5 1014.7 4.5 SE 7.1 ESE 0.0 0.2
04:25 7.9 7.7 97.2 1014.7 1.0 SE 2.8 SE 0.0 0.5
04:30 7.8 7.5 97.5 1014.7 0.0 NNE 0.0 SE 0.0 1.6
04:35 7.7 7.4 97.5 1014.7 0.0 NNE 0.0 S 0.0 1.9
04:40 7.6 7.3 97.8 1014.7 0.0 NNE 0.0 SSE 0.0 1.7
04:45 7.7 7.4 98.4 1014.8 0.1 WSW 1.4 WSW 0.0 2.8
04:50 7.9 7.6 99.0 1014.8 0.0 W 1.1 W 0.0 4.2
04:55 8.1 7.9 99.2 1014.9 0.6 NW 2.1 NW 0.0 6.0
05:00 8.3 8.2 99.4 1014.9 1.7 NNW 2.8 N 0.0 6.9
05:05 8.5 8.5 99.4 1014.9 1.6 N 2.5 N 0.0 8.7
05:10 8.5 8.7 99.2 1014.9 2.4 NNE 4.2 NNE 0.0 12.6
05:15 8.7 8.8 99.3 1014.8 1.6 W 3.5 NNE 0.0 20.8
05:20 8.9 9.0 99.1 1014.8 2.2 NNW 4.2 NW 0.0 33.2
05:25 8.9 9.2 98.7 1014.9 0.1 N 2.1 N 0.0 36.6
05:30 8.9 9.2 98.7 1014.9 0.3 W 1.8 W 0.0 33.4
05:35 9.1 9.3 98.6 1015.1 1.2 E 2.1 SE 0.0 31.2
05:40 9.1 9.4 98.5 1015.1 0.7 ENE 2.1 ENE 0.0 40.1
05:45 9.2 9.5 98.7 1015.1 0.0 SSE 1.1 SSE 0.0 46.6
05:50 9.4 9.6 99.0 1015.1 2.4 NNW 5.3 N 0.0 55.2
05:55 9.6 9.8 98.9 1015.0 3.3 N 7.1 NNE 0.0 62.5
06:00 9.8 10.0 98.6 1015.0 5.4 N 7.4 NNE 0.0 67.2
06:05 9.9 10.2 98.4 1015.0 5.1 NNE 8.8 NE 0.0 69.5
06:10 10.0 10.3 98.2 1015.0 4.2 NNE 8.1 N 0.0 75.0
06:15 10.2 10.4 98.0 1015.0 3.7 NNE 7.8 N 0.0 86.5
06:20 10.3 10.6 97.2 1015.0 6.3 N 9.9 N 0.0 108.3
06:25 10.3 10.8 96.8 1015.0 3.1 N 5.6 NNE 0.0 115.3
06:30 10.5 10.9 96.8 1015.0 1.9 NNW 4.2 N 0.0 122.7
06:35 10.7 11.2 96.8 1015.0 1.8 NNW 3.9 NNW 0.0 134.8
06:40 10.9 11.5 95.8 1015.0 3.3 NNW 5.6 NNW 0.0 162.6
06:45 11.1 11.7 95.2 1014.9 2.3 N 4.6 NW 0.0 199.1
06:50 11.2 11.9 94.3 1014.9 3.4 NNW 6.7 NW 0.0 189.2
06:55 11.3 12.1 94.1 1014.8 4.0 N 7.1 N 0.0 210.3
07:00 11.4 12.2 94.3 1014.8 3.5 NNW 6.7 WNW 0.0 217.5
07:05 11.6 12.3 93.3 1014.7 2.1 NW 5.3 NNW 0.0 214.4
07:10 11.8 12.4 92.7 1014.7 1.6 NNW 4.2 W 0.0 226.1
07:15 12.0 12.6 91.3 1014.6 1.6 NNW 3.5 NNE 0.0 233.9
07:20 12.1 12.7 90.1 1014.6 0.9 WSW 3.5 NNW 0.0 238.7
07:25 12.1 12.8 89.8 1014.6 1.7 W 3.9 W 0.0 229.8
07:30 12.2 12.8 89.4 1014.6 2.1 NNW 4.2 NNW 0.0 248.2
07:35 12.4 13.0 89.0 1014.5 1.3 N 3.9 NNE 0.0 255.0
07:40 12.7 13.2 88.4 1014.5 1.0 N 3.5 NW 0.0 263.3
07:45 12.9 13.6 87.4 1014.5 1.4 N 3.5 NE 0.0 287.0
07:50 13.2 13.8 86.0 1014.5 2.1 NW 3.5 WNW 0.0 320.8
07:55 13.3 14.2 84.9 1014.4 2.7 N 5.6 N 0.0 374.2
08:00 13.4 14.4 84.6 1014.4 3.1 NW 5.3 NW 0.0 369.9
08:05 13.7 14.6 83.3 1014.2 2.5 NW 6.4 WNW 0.0 392.3
08:10 14.0 14.8 82.0 1014.2 3.3 NW 7.4 NW 0.0 387.3
08:15 13.9 15.0 82.1 1014.1 5.9 NW 8.5 NW 0.0 442.1
08:20 14.0 15.0 83.7 1014.1 6.2 N 10.9 N 0.0 492.4
08:25 14.2 15.1 83.1 1013.8 5.0 NE 7.8 NE 0.0 515.1
08:30 14.3 15.2 82.5 1013.8 4.6 NNW 9.9 NNW 0.0 456.1
08:35 14.6 15.5 81.8 1013.8 1.6 NW 5.6 NNW 0.0 427.7
08:40 15.1 15.9 81.4 1013.8 2.8 NW 7.4 WNW 0.0 397.6
08:45 15.3 16.2 79.1 1013.8 4.2 WNW 6.7 WNW 0.0 381.0
08:50 15.5 16.5 78.4 1013.8 5.4 WNW 9.5 WNW 0.0 372.5
08:55 15.7 16.7 77.5 1014.0 4.4 W 7.4 W 0.0 410.1
09:00 16.0 17.0 76.7 1014.0 3.7 WNW 7.4 W 0.0 407.8
09:05 16.3 17.4 76.5 1014.0 4.4 NNW 7.4 N 0.0 289.9
09:10 16.3 17.5 75.9 1014.0 4.1 NW 10.2 NNW 0.0 263.2
09:15 16.6 17.6 76.1 1013.8 4.8 NNE 10.2 NNW 0.0 265.5
09:20 16.6 17.5 75.5 1013.8 7.0 NNE 14.8 NNE 0.0 211.4
09:25 16.5 17.2 74.7 1013.8 8.1 ENE 14.1 ENE 0.0 200.2
09:30 16.5 16.9 74.4 1013.8 8.5 ENE 14.1 NE 0.0 201.2
09:35 16.5 16.7 75.4 1013.9 7.1 ENE 13.1 ENE 0.0 246.0
09:40 16.6 16.8 73.7 1013.9 9.9 NE 18.0 ENE 0.0 324.4
09:45 16.8 17.1 73.5 1014.1 9.8 ENE 15.9 ENE 0.0 542.8
09:50 17.3 17.7 71.3 1014.1 9.9 ENE 15.9 NE 0.0 545.2
09:55 17.6 18.2 70.0 1014.1 8.3 ENE 17.6 ENE 0.0 412.6
10:00 17.6 18.4 69.2 1014.1 9.7 NE 15.5 NE 0.0 348.9
10:05 17.3 18.3 70.1 1014.2 8.6 ENE 16.9 ENE 0.0 396.2
10:10 17.4 18.3 69.4 1014.2 8.5 NE 14.8 NE 0.0 408.8
10:15 17.3 18.3 68.9 1014.3 10.2 ENE 15.9 ENE 0.0 417.7
10:20 17.5 18.3 68.7 1014.3 9.0 ENE 15.5 NE 0.0 415.9
10:25 17.5 18.3 69.2 1014.2 10.5 ENE 16.2 ENE 0.0 459.9
10:30 17.5 18.4 67.9 1014.2 12.6 NE 21.5 NE 0.0 433.6
10:35 17.2 18.1 68.2 1014.1 13.4 ENE 20.8 NE 0.0 378.3
10:40 17.0 17.7 69.4 1014.1 11.3 NE 20.1 NE 0.0 294.8
10:45 16.8 17.5 69.5 1014.2 8.8 NE 15.5 NNE 0.0 239.7
10:50 16.9 17.3 69.6 1014.2 9.8 ENE 17.6 ENE 0.0 220.2
10:55 16.6 17.0 69.4 1014.2 11.6 NE 20.1 NE 0.0 197.2
11:00 16.5 16.7 70.8 1014.2 11.5 ENE 18.0 NE 0.0 178.2
11:05 16.4 16.5 70.2 1014.2 11.5 NE 18.7 ENE 0.0 149.7
11:10 16.2 16.2 71.2 1014.2 8.8 NE 16.2 NE 0.0 133.2
11:15 16.2 16.1 71.7 1014.2 7.2 NE 14.1 NE 0.0 109.8
11:20 16.1 16.0 71.6 1014.2 9.0 ENE 16.6 ENE 0.0 99.9
11:25 16.0 15.8 72.3 1014.2 7.9 ENE 16.6 ENE 0.0 93.8
11:30 15.9 15.7 73.0 1014.2 6.3 ENE 11.3 ENE 0.0 87.5
11:35 15.8 15.6 72.4 1014.2 7.0 ENE 11.6 ENE 0.0 70.7
11:40 15.8 15.5 73.3 1014.2 7.8 ENE 12.7 ENE 0.0 59.3
11:45 15.7 15.4 74.7 1014.3 5.0 E 10.2 E 0.0 68.7
11:50 15.7 15.2 76.6 1014.3 3.9 E 8.8 ENE 0.0 92.2
11:55 15.7 15.2 76.8 1014.1 4.8 E 10.2 E 0.0 107.1
12:00 15.8 15.3 77.5 1014.1 6.7 ENE 10.6 ENE 0.0 119.7
12:05 15.9 15.4 77.6 1014.0 4.5 E 7.4 ENE 0.0 134.1
12:10 16.0 15.6 76.6 1014.0 6.1 ENE 9.9 ENE 0.0 114.7
12:15 16.1 15.8 74.4 1013.9 6.1 ENE 9.5 ENE 0.0 97.1
12:20 15.9 15.8 74.5 1013.9 6.8 NE 12.4 NE 0.0 102.0
12:25 15.9 15.7 75.3 1013.7 7.1 NE 10.9 ENE 0.0 104.9
12:30 15.9 15.7 76.6 1013.7 8.3 NE 15.2 ENE 0.0 121.0
12:35 16.0 15.7 77.0 1013.4 3.9 E 10.2 ESE 0.0 141.7
12:40 16.3 16.0 76.3 1013.4 3.5 ENE 6.4 SE 0.0 152.8
12:45 16.2 16.2 74.3 1013.2 8.8 NE 13.4 ENE 0.0 162.6
12:50 16.1 16.2 73.9 1013.2 5.1 NE 9.5 ENE 0.0 202.2
12:55 16.3 16.3 74.0 1013.0 4.3 ENE 9.9 ENE 0.0 208.2
13:00 16.4 16.5 74.2 1013.0 4.6 ENE 8.5 NE 0.0 192.2
13:05 16.4 16.5 73.9 1013.0 6.0 E 9.2 E 0.0 188.0
13:10 16.4 16.5 73.9 1013.0 5.9 NE 9.5 ENE 0.0 184.1
13:15 16.2 16.4 75.4 1012.9 6.9 NE 10.6 ENE 0.0 183.4
13:20 16.1 16.3 76.7 1012.9 6.4 NE 10.9 NE 0.0 180.6
13:25 15.9 16.2 76.7 1013.0 10.8 NNE 15.9 NE 0.0 171.2
13:30 15.8 16.0 77.5 1013.0 10.6 NE 16.6 NE 0.0 168.5
13:35 15.7 15.8 77.8 1013.1 9.5 NE 15.2 ENE 0.0 168.8
13:40 15.7 15.8 78.3 1013.1 7.3 NE 14.1 NNE 0.0 173.5
13:45 15.8 15.8 78.6 1013.1 10.2 NE 14.8 ENE 0.0 165.9
13:50 15.7 15.8 78.8 1013.1 9.0 NE 15.5 NNE 0.0 152.5
13:55 15.7 15.7 78.9 1012.9 9.6 NE 14.8 NE 0.0 142.1
14:00 15.6 15.6 80.0 1012.9 8.9 NE 17.3 NE 0.0 119.7
14:05 15.5 15.5 80.0 1013.1 9.7 NE 15.2 NE 0.0 93.6
14:10 15.4 15.3 80.9 1013.1 6.6 NE 12.4 NE 0.0 76.3
14:15 15.3 15.2 81.7 1013.2 7.1 ENE 13.4 ENE 0.0 68.3
14:20 15.3 15.1 81.1 1013.2 7.8 ENE 11.3 ENE 0.0 59.7
14:25 15.3 15.0 81.0 1013.0 6.5 ENE 11.6 ENE 0.0 53.0
14:30 15.2 14.9 81.6 1013.0 6.2 ENE 10.9 ENE 0.0 46.7
14:35 15.1 14.8 82.2 1012.9 5.5 ENE 10.6 ENE 0.0 38.1
14:40 15.0 14.7 82.2 1012.9 5.4 ENE 9.5 ENE 0.0 26.6
14:45 14.9 14.7 82.5 1012.7 6.3 ENE 9.2 ENE 0.0 22.7
14:50 14.8 14.5 80.8 1012.7 9.9 ENE 14.5 ENE 0.0 21.1
14:55 14.8 14.5 79.8 1012.5 8.1 NE 12.4 ENE 0.0 20.9
15:00 14.7 14.4 80.5 1012.5 8.5 ENE 15.2 ENE 0.0 21.2
15:05 14.6 14.1 79.6 1012.0 9.7 NNE 13.8 NE 0.0 23.6
15:10 14.3 13.5 83.1 1012.0 10.4 NE 15.5 NE 0.2 27.0
15:15 13.9 13.0 88.3 1011.6 9.1 NE 15.9 NNE 0.2 31.3
15:20 13.5 12.8 91.3 1011.6 8.0 NNE 14.1 NE 0.3 42.5
15:25 13.4 12.7 93.2 1011.3 7.5 NNE 11.6 NE 0.4 55.0
15:30 13.3 12.7 94.8 1011.3 7.1 N 10.9 N 0.3 62.0
15:35 13.2 12.7 96.1 1011.1 4.0 N 7.8 N 0.1 56.1
15:40 13.2 12.8 96.9 1011.1 4.3 NNW 11.3 NNW 0.1 45.3
15:45 13.3 12.9 97.4 1011.4 3.5 WNW 7.1 NW 0.0 33.9
15:50 13.3 13.0 97.4 1011.4 3.9 WNW 8.1 W 0.0 23.4
15:55 13.3 13.0 97.2 1012.2 5.2 W 10.2 WSW 0.1 16.7
16:00 13.5 13.0 96.0 1012.2 5.9 WSW 8.8 WSW 0.0 11.3
16:05 13.8 13.2 95.3 1012.9 6.4 SW 10.6 SW 0.2 10.5
16:10 13.7 13.3 95.7 1012.9 8.7 SW 14.8 SW 0.3 14.2
16:15 13.5 13.2 96.4 1013.2 7.8 WSW 13.4 WSW 0.4 15.1
16:20 13.4 13.2 97.5 1013.2 7.6 WSW 12.0 W 0.4 16.9
16:25 13.4 13.1 98.1 1013.3 8.3 WSW 14.5 W 0.3 13.2
16:30 13.3 13.1 98.4 1013.3 8.4 WSW 12.7 WSW 0.2 11.2
16:35 13.2 13.0 98.2 1013.3 5.7 WSW 9.5 SW 0.5 10.7
16:40 13.0 12.9 98.0 1013.3 2.7 WNW 7.8 W 0.8 11.0
16:45 13.0 12.8 98.3 1013.3 2.3 S 4.9 S 1.0 11.0
16:50 13.0 12.7 98.7 1013.3 1.4 WNW 3.2 NNW 0.8 10.5
16:55 12.9 12.7 98.4 1013.0 1.2 NNE 3.2 N 0.5 7.9
17:00 12.8 12.5 98.6 1013.0 3.7 ENE 4.9 ENE 0.3 6.1
17:05 12.8 12.4 98.9 1013.0 2.2 NE 4.2 ENE 0.4 5.5
17:10 12.7 12.4 99.0 1013.0 0.9 ENE 2.5 ENE 0.5 5.1
17:15 12.7 12.4 99.2 1012.8 2.4 E 3.9 E 0.6 3.8
17:20 12.8 12.4 99.4 1012.8 1.7 E 3.2 E 0.7 5.1
17:25 12.7 12.4 99.5 1012.6 2.6 NE 3.5 NE 0.7 6.3
17:30 12.7 12.4 99.7 1012.6 4.6 NE 6.7 NE 0.8 7.6
17:35 12.8 12.4 100.0 1012.3 4.7 NE 6.7 NNE 0.5 8.4
17:40 12.8 12.4 100.0 1012.3 6.0 NNE 8.8 NE 0.6 8.5
17:45 12.7 12.4 100.0 1012.0 8.9 NNE 13.1 NNE 0.4 9.0
17:50 12.7 12.4 100.0 1012.0 8.9 NNE 14.8 NNE 0.4 10.3
17:55 12.6 12.4 100.0 1011.7 9.0 NNE 13.8 NNE 0.4 11.4
18:00 12.6 12.3 100.0 1011.7 6.6 NNE 14.1 N 0.2 11.6
18:05 12.5 12.2 100.0 1011.5 7.5 NNE 13.4 NNE 0.1 9.1
18:10 12.3 12.1 100.0 1011.5 6.3 NNE 13.8 NNE 0.1 6.1
18:15 12.3 12.0 100.0 1011.5 6.6 NNE 13.1 NE 0.1 4.3
18:20 12.3 12.0 100.0 1011.5 4.3 NNE 8.5 NNE 0.0 3.9
18:25 12.3 12.0 100.0 1011.5 2.4 NNE 5.6 NNE 0.1 3.5
18:30 12.4 12.1 100.0 1011.5 1.0 N 4.2 NNE 0.1 2.9
18:35 12.6 12.2 100.0 1011.6 1.9 SW 3.5 SSE 0.1 2.6
18:40 12.5 12.3 100.0 1011.6 0.3 WNW 2.5 NW 0.0 2.5
18:45 12.5 12.3 100.0 1011.6 0.0 NNE 0.0 WNW 0.1 2.1
18:50 12.4 12.2 100.0 1011.6 1.0 E 3.9 E 0.1 1.6
18:55 12.3 12.1 100.0 1011.6 0.8 ESE 2.8 ESE 0.0 0.9
19:00 12.3 12.1 100.0 1011.6 0.8 W 1.8 W 0.0 0.6
19:05 12.3 12.0 100.0 1011.7 1.5 S 3.2 SSE 0.0 0.4
19:10 12.4 12.1 100.0 1011.7 2.3 S 4.2 SSE 0.1 0.3
19:15 12.3 12.0 100.0 1011.8 2.7 S 5.6 SSW 0.0 0.2
19:20 12.4 12.1 100.0 1011.8 3.4 SSW 4.9 SSW 0.0 0.2
19:25 12.4 12.2 100.0 1012.0 3.0 SSW 4.2 S 0.0 0.1
Máxima 17.6 18.4 100.0 1016.1 13.4 ENE 21.5 NE 1.0 545.2
Mínima 7.6 7.3 67.9 1011.1
Total 14.5